sensor_id;sensor_type;location;lat;lon;timestamp;pressure;altitude;pressure_sealevel;temperature;humidity
64644;BME280;51056;50.330;7.914;2022-11-04T00:02:37;99445.56;;;10.74;98.64
64644;BME280;51056;50.330;7.914;2022-11-04T00:05:41;99427.78;;;10.79;98.51
64644;BME280;51056;50.330;7.914;2022-11-04T00:08:56;99444.19;;;10.68;99.47
64644;BME280;51056;50.330;7.914;2022-11-04T00:11:59;99460.75;;;10.69;98.62
64644;BME280;51056;50.330;7.914;2022-11-04T00:15:21;99475.91;;;10.64;98.10
64644;BME280;51056;50.330;7.914;2022-11-04T00:18:43;99468.59;;;10.69;99.17
64644;BME280;51056;50.330;7.914;2022-11-04T00:21:49;99463.34;;;10.69;98.75
64644;BME280;51056;50.330;7.914;2022-11-04T00:25:12;99460.84;;;10.67;98.87
64644;BME280;51056;50.330;7.914;2022-11-04T00:28:34;99464.19;;;10.69;98.73
64644;BME280;51056;50.330;7.914;2022-11-04T00:31:47;99449.81;;;10.75;98.95
64644;BME280;51056;50.330;7.914;2022-11-04T00:35:11;99464.28;;;10.68;98.19
64644;BME280;51056;50.330;7.914;2022-11-04T00:38:16;99483.53;;;10.67;98.00
64644;BME280;51056;50.330;7.914;2022-11-04T00:41:20;99474.03;;;10.66;98.85
64644;BME280;51056;50.330;7.914;2022-11-04T00:44:29;99482.38;;;10.58;97.76
64644;BME280;51056;50.330;7.914;2022-11-04T00:47:33;99473.63;;;10.59;97.99
64644;BME280;51056;50.330;7.914;2022-11-04T00:50:38;99483.63;;;10.53;97.89
64644;BME280;51056;50.330;7.914;2022-11-04T00:53:42;99484.78;;;10.48;99.78
64644;BME280;51056;50.330;7.914;2022-11-04T00:56:46;99479.69;;;10.47;99.76
64644;BME280;51056;50.330;7.914;2022-11-04T00:59:52;99486.03;;;10.43;99.70
64644;BME280;51056;50.330;7.914;2022-11-04T01:02:56;99493.88;;;10.43;99.64
64644;BME280;51056;50.330;7.914;2022-11-04T01:06:00;99507.47;;;10.35;99.29
64644;BME280;51056;50.330;7.914;2022-11-04T01:09:06;99518.34;;;10.29;98.67
64644;BME280;51056;50.330;7.914;2022-11-04T01:12:10;99517.31;;;10.32;99.14
64644;BME280;51056;50.330;7.914;2022-11-04T01:15:14;99514.44;;;10.22;99.16
64644;BME280;51056;50.330;7.914;2022-11-04T01:18:18;99524.41;;;10.30;96.80
64644;BME280;51056;50.330;7.914;2022-11-04T01:21:24;99523.56;;;10.29;96.12
64644;BME280;51056;50.330;7.914;2022-11-04T01:24:29;99528.03;;;10.27;95.23
64644;BME280;51056;50.330;7.914;2022-11-04T01:27:33;99540.19;;;10.28;95.85
64644;BME280;51056;50.330;7.914;2022-11-04T01:30:37;99537.75;;;10.25;96.08
64644;BME280;51056;50.330;7.914;2022-11-04T01:33:41;99550.66;;;10.14;96.86
64644;BME280;51056;50.330;7.914;2022-11-04T01:36:44;99562.13;;;9.98;97.49
64644;BME280;51056;50.330;7.914;2022-11-04T01:39:52;99565.28;;;10.04;97.47
64644;BME280;51056;50.330;7.914;2022-11-04T01:42:56;99561.31;;;10.11;97.00
64644;BME280;51056;50.330;7.914;2022-11-04T01:46:03;99573.00;;;9.92;97.14
64644;BME280;51056;50.330;7.914;2022-11-04T01:49:32;99568.16;;;9.86;97.43
64644;BME280;51056;50.330;7.914;2022-11-04T01:53:15;99562.75;;;9.89;96.98
64644;BME280;51056;50.330;7.914;2022-11-04T01:56:21;99565.00;;;9.81;96.81
64644;BME280;51056;50.330;7.914;2022-11-04T01:59:34;99565.97;;;9.93;96.50
64644;BME280;51056;50.330;7.914;2022-11-04T02:02:45;99565.53;;;9.86;96.20
64644;BME280;51056;50.330;7.914;2022-11-04T02:05:52;99565.81;;;9.82;97.47
64644;BME280;51056;50.330;7.914;2022-11-04T02:08:56;99561.25;;;9.85;97.38
64644;BME280;51056;50.330;7.914;2022-11-04T02:12:01;99558.00;;;9.82;96.96
64644;BME280;51056;50.330;7.914;2022-11-04T02:19:14;99543.84;;;9.98;93.39
64644;BME280;51056;50.330;7.914;2022-11-04T02:29:44;99561.91;;;10.01;92.60
64644;BME280;51056;50.330;7.914;2022-11-04T02:33:18;99557.03;;;9.83;91.52
64644;BME280;51056;50.330;7.914;2022-11-04T02:36:44;99560.66;;;9.94;90.18
64644;BME280;51056;50.330;7.914;2022-11-04T02:46:55;99566.63;;;9.96;88.27
64644;BME280;51056;50.330;7.914;2022-11-04T02:50:10;99574.88;;;10.03;89.87
64644;BME280;51056;50.330;7.914;2022-11-04T02:53:26;99581.47;;;9.96;91.30
64644;BME280;51056;50.330;7.914;2022-11-04T02:56:38;99582.06;;;9.72;92.84
64644;BME280;51056;50.330;7.914;2022-11-04T02:59:48;99575.50;;;9.67;93.04
64644;BME280;51056;50.330;7.914;2022-11-04T03:02:54;99584.34;;;9.64;92.26
64644;BME280;51056;50.330;7.914;2022-11-04T03:06:00;99580.78;;;9.65;93.04
64644;BME280;51056;50.330;7.914;2022-11-04T03:09:05;99581.00;;;9.62;93.50
64644;BME280;51056;50.330;7.914;2022-11-04T03:12:12;99593.69;;;9.54;93.61
64644;BME280;51056;50.330;7.914;2022-11-04T03:15:21;99591.03;;;9.41;94.60
64644;BME280;51056;50.330;7.914;2022-11-04T03:18:32;99598.84;;;9.27;95.17
64644;BME280;51056;50.330;7.914;2022-11-04T03:21:41;99598.00;;;9.26;95.11
64644;BME280;51056;50.330;7.914;2022-11-04T03:24:47;99594.94;;;9.20;95.91
64644;BME280;51056;50.330;7.914;2022-11-04T03:28:05;99591.69;;;9.16;95.46
64644;BME280;51056;50.330;7.914;2022-11-04T03:31:24;99579.69;;;9.14;95.31
64644;BME280;51056;50.330;7.914;2022-11-04T03:34:30;99583.22;;;9.13;95.14
64644;BME280;51056;50.330;7.914;2022-11-04T03:37:34;99583.88;;;9.16;94.63
64644;BME280;51056;50.330;7.914;2022-11-04T03:40:38;99584.16;;;8.97;95.05
64644;BME280;51056;50.330;7.914;2022-11-04T03:43:42;99584.88;;;9.14;94.44
64644;BME280;51056;50.330;7.914;2022-11-04T03:46:45;99589.06;;;9.02;93.98
64644;BME280;51056;50.330;7.914;2022-11-04T03:50:11;99585.06;;;9.11;93.34
64644;BME280;51056;50.330;7.914;2022-11-04T03:53:19;99593.06;;;8.93;93.52
64644;BME280;51056;50.330;7.914;2022-11-04T03:56:44;99605.00;;;8.97;94.23
64644;BME280;51056;50.330;7.914;2022-11-04T04:00:09;99615.25;;;9.00;93.75
64644;BME280;51056;50.330;7.914;2022-11-04T04:03:34;99612.81;;;8.83;93.41
64644;BME280;51056;50.330;7.914;2022-11-04T04:06:44;99622.88;;;8.89;92.79
64644;BME280;51056;50.330;7.914;2022-11-04T04:13:53;99620.00;;;9.08;92.31
64644;BME280;51056;50.330;7.914;2022-11-04T04:17:50;99632.28;;;8.92;92.55
64644;BME280;51056;50.330;7.914;2022-11-04T04:20:30;99639.66;;;9.14;92.32
64644;BME280;51056;50.330;7.914;2022-11-04T04:23:37;99638.66;;;9.16;92.48
64644;BME280;51056;50.330;7.914;2022-11-04T04:27:01;99634.63;;;9.11;92.40
64644;BME280;51056;50.330;7.914;2022-11-04T04:30:24;99634.88;;;9.06;92.46
64644;BME280;51056;50.330;7.914;2022-11-04T04:33:27;99630.25;;;8.97;93.14
64644;BME280;51056;50.330;7.914;2022-11-04T04:36:33;99631.66;;;9.17;92.61
64644;BME280;51056;50.330;7.914;2022-11-04T04:39:55;99634.88;;;9.06;93.11
64644;BME280;51056;50.330;7.914;2022-11-04T04:43:19;99627.00;;;9.07;93.15
64644;BME280;51056;50.330;7.914;2022-11-04T04:46:43;99626.63;;;9.14;93.15
64644;BME280;51056;50.330;7.914;2022-11-04T04:49:49;99624.56;;;9.19;92.89
64644;BME280;51056;50.330;7.914;2022-11-04T04:52:55;99613.94;;;9.22;92.51
64644;BME280;51056;50.330;7.914;2022-11-04T04:56:00;99607.16;;;9.05;92.96
64644;BME280;51056;50.330;7.914;2022-11-04T04:59:04;99610.59;;;9.20;92.78
64644;BME280;51056;50.330;7.914;2022-11-04T05:02:10;99608.63;;;9.09;93.40
64644;BME280;51056;50.330;7.914;2022-11-04T05:05:16;99606.13;;;9.07;93.48
64644;BME280;51056;50.330;7.914;2022-11-04T05:08:22;99602.03;;;9.03;93.86
64644;BME280;51056;50.330;7.914;2022-11-04T05:11:28;99595.50;;;9.11;93.74
64644;BME280;51056;50.330;7.914;2022-11-04T05:14:31;99598.69;;;9.01;93.88
64644;BME280;51056;50.330;7.914;2022-11-04T05:17:35;99607.78;;;9.08;93.53
64644;BME280;51056;50.330;7.914;2022-11-04T05:20:39;99596.63;;;8.92;94.07
64644;BME280;51056;50.330;7.914;2022-11-04T05:23:43;99585.81;;;8.84;94.03
64644;BME280;51056;50.330;7.914;2022-11-04T05:26:46;99602.56;;;8.80;94.08
64644;BME280;51056;50.330;7.914;2022-11-04T05:29:50;99608.59;;;8.80;93.39
64644;BME280;51056;50.330;7.914;2022-11-04T05:38:09;99620.31;;;8.59;93.42
64644;BME280;51056;50.330;7.914;2022-11-04T05:42:15;99623.22;;;8.83;92.12
64644;BME280;51056;50.330;7.914;2022-11-04T05:45:19;99631.34;;;8.78;91.45
64644;BME280;51056;50.330;7.914;2022-11-04T05:48:22;99626.38;;;8.74;91.95
64644;BME280;51056;50.330;7.914;2022-11-04T05:51:28;99613.28;;;8.75;91.70
64644;BME280;51056;50.330;7.914;2022-11-04T05:54:32;99617.84;;;8.86;91.19
64644;BME280;51056;50.330;7.914;2022-11-04T05:57:35;99623.94;;;8.71;92.12
64644;BME280;51056;50.330;7.914;2022-11-04T06:00:41;99635.91;;;8.75;91.89
64644;BME280;51056;50.330;7.914;2022-11-04T06:03:51;99641.72;;;8.64;92.25
64644;BME280;51056;50.330;7.914;2022-11-04T06:06:55;99644.72;;;8.42;92.79
64644;BME280;51056;50.330;7.914;2022-11-04T06:09:59;99636.97;;;8.56;92.48
64644;BME280;51056;50.330;7.914;2022-11-04T06:13:02;99640.16;;;8.61;92.47
64644;BME280;51056;50.330;7.914;2022-11-04T06:16:11;99628.44;;;8.83;91.55
64644;BME280;51056;50.330;7.914;2022-11-04T06:19:15;99634.00;;;8.63;92.47
64644;BME280;51056;50.330;7.914;2022-11-04T06:22:20;99635.91;;;8.75;91.95
64644;BME280;51056;50.330;7.914;2022-11-04T06:25:25;99643.25;;;8.68;91.69
64644;BME280;51056;50.330;7.914;2022-11-04T06:28:29;99630.25;;;8.52;92.06
64644;BME280;51056;50.330;7.914;2022-11-04T06:31:35;99635.47;;;8.36;92.43
64644;BME280;51056;50.330;7.914;2022-11-04T06:34:39;99648.69;;;8.49;91.91
64644;BME280;51056;50.330;7.914;2022-11-04T06:37:43;99656.75;;;8.45;91.62
64644;BME280;51056;50.330;7.914;2022-11-04T06:40:47;99654.13;;;8.29;92.30
64644;BME280;51056;50.330;7.914;2022-11-04T06:43:51;99670.03;;;8.24;91.89
64644;BME280;51056;50.330;7.914;2022-11-04T06:46:56;99677.94;;;8.38;90.94
64644;BME280;51056;50.330;7.914;2022-11-04T06:50:00;99681.72;;;8.33;91.30
64644;BME280;51056;50.330;7.914;2022-11-04T06:53:04;99681.53;;;8.36;91.64
64644;BME280;51056;50.330;7.914;2022-11-04T06:56:08;99677.84;;;8.40;91.54
64644;BME280;51056;50.330;7.914;2022-11-04T06:59:18;99687.94;;;8.46;92.16
64644;BME280;51056;50.330;7.914;2022-11-04T07:02:22;99684.03;;;8.53;92.22
64644;BME280;51056;50.330;7.914;2022-11-04T07:05:25;99686.75;;;8.36;93.19
64644;BME280;51056;50.330;7.914;2022-11-04T07:08:29;99691.44;;;8.29;93.39
64644;BME280;51056;50.330;7.914;2022-11-04T07:11:35;99697.16;;;8.36;93.55
64644;BME280;51056;50.330;7.914;2022-11-04T07:14:41;99693.47;;;8.40;93.20
64644;BME280;51056;50.330;7.914;2022-11-04T07:17:44;99695.97;;;8.26;92.96
64644;BME280;51056;50.330;7.914;2022-11-04T07:20:48;99707.25;;;8.42;92.79
64644;BME280;51056;50.330;7.914;2022-11-04T07:23:52;99711.72;;;8.24;93.11
64644;BME280;51056;50.330;7.914;2022-11-04T07:26:56;99729.97;;;8.40;92.56
64644;BME280;51056;50.330;7.914;2022-11-04T07:30:00;99725.22;;;8.31;93.14
64644;BME280;51056;50.330;7.914;2022-11-04T07:33:04;99732.09;;;8.32;93.34
64644;BME280;51056;50.330;7.914;2022-11-04T07:36:11;99738.69;;;8.23;93.59
64644;BME280;51056;50.330;7.914;2022-11-04T07:39:15;99737.31;;;8.32;93.56
64644;BME280;51056;50.330;7.914;2022-11-04T07:42:18;99742.78;;;8.27;94.32
64644;BME280;51056;50.330;7.914;2022-11-04T07:45:29;99748.41;;;8.51;93.12
64644;BME280;51056;50.330;7.914;2022-11-04T07:48:34;99752.47;;;8.41;93.55
64644;BME280;51056;50.330;7.914;2022-11-04T07:51:38;99755.22;;;8.54;92.90
64644;BME280;51056;50.330;7.914;2022-11-04T07:54:42;99746.91;;;8.63;92.51
64644;BME280;51056;50.330;7.914;2022-11-04T07:57:46;99749.41;;;8.65;92.80
64644;BME280;51056;50.330;7.914;2022-11-04T08:00:56;99746.09;;;8.77;92.16
64644;BME280;51056;50.330;7.914;2022-11-04T08:04:00;99748.94;;;8.88;91.58
64644;BME280;51056;50.330;7.914;2022-11-04T08:07:07;99747.84;;;8.92;91.63
64644;BME280;51056;50.330;7.914;2022-11-04T08:10:12;99745.38;;;8.75;92.91
64644;BME280;51056;50.330;7.914;2022-11-04T08:13:15;99742.63;;;8.92;91.97
64644;BME280;51056;50.330;7.914;2022-11-04T08:16:20;99750.91;;;8.84;92.69
64644;BME280;51056;50.330;7.914;2022-11-04T08:19:24;99747.66;;;8.95;92.63
64644;BME280;51056;50.330;7.914;2022-11-04T08:22:29;99751.19;;;8.94;92.50
64644;BME280;51056;50.330;7.914;2022-11-04T08:25:32;99749.88;;;8.87;92.26
64644;BME280;51056;50.330;7.914;2022-11-04T08:28:36;99740.66;;;8.96;91.22
64644;BME280;51056;50.330;7.914;2022-11-04T08:31:40;99734.50;;;9.13;91.13
64644;BME280;51056;50.330;7.914;2022-11-04T08:34:44;99732.66;;;9.29;90.35
64644;BME280;51056;50.330;7.914;2022-11-04T08:37:48;99730.59;;;9.20;90.35
64644;BME280;51056;50.330;7.914;2022-11-04T08:40:56;99733.38;;;9.17;90.76
64644;BME280;51056;50.330;7.914;2022-11-04T08:44:00;99730.03;;;9.29;89.95
64644;BME280;51056;50.330;7.914;2022-11-04T08:47:06;99725.75;;;9.42;89.16
64644;BME280;51056;50.330;7.914;2022-11-04T08:50:09;99721.28;;;9.44;88.07
64644;BME280;51056;50.330;7.914;2022-11-04T08:53:14;99727.44;;;9.58;88.37
64644;BME280;51056;50.330;7.914;2022-11-04T08:56:19;99723.63;;;9.49;90.18
64644;BME280;51056;50.330;7.914;2022-11-04T08:59:22;99731.53;;;9.62;90.61
64644;BME280;51056;50.330;7.914;2022-11-04T09:02:27;99741.97;;;9.76;90.42
64644;BME280;51056;50.330;7.914;2022-11-04T09:05:31;99736.66;;;9.77;90.83
64644;BME280;51056;50.330;7.914;2022-11-04T09:08:35;99728.44;;;9.84;91.55
64644;BME280;51056;50.330;7.914;2022-11-04T09:11:43;99737.75;;;9.88;90.87
64644;BME280;51056;50.330;7.914;2022-11-04T09:14:47;99729.25;;;9.98;90.10
64644;BME280;51056;50.330;7.914;2022-11-04T09:17:52;99727.59;;;9.97;90.10
64644;BME280;51056;50.330;7.914;2022-11-04T09:21:00;99723.66;;;10.05;90.29
64644;BME280;51056;50.330;7.914;2022-11-04T09:24:06;99719.34;;;10.18;89.76
64644;BME280;51056;50.330;7.914;2022-11-04T09:27:13;99716.25;;;10.25;89.09
64644;BME280;51056;50.330;7.914;2022-11-04T09:30:17;99726.88;;;10.22;90.35
64644;BME280;51056;50.330;7.914;2022-11-04T09:33:20;99724.06;;;10.25;90.35
64644;BME280;51056;50.330;7.914;2022-11-04T09:36:28;99723.22;;;10.39;89.67
64644;BME280;51056;50.330;7.914;2022-11-04T09:39:32;99719.22;;;10.34;88.87
64644;BME280;51056;50.330;7.914;2022-11-04T09:46:00;99708.09;;;10.44;88.46
64644;BME280;51056;50.330;7.914;2022-11-04T09:49:07;99713.66;;;10.53;89.53
64644;BME280;51056;50.330;7.914;2022-11-04T09:52:31;99710.97;;;10.67;90.27
64644;BME280;51056;50.330;7.914;2022-11-04T09:55:44;99718.94;;;10.78;90.12
64644;BME280;51056;50.330;7.914;2022-11-04T09:58:50;99727.34;;;10.83;90.95
64644;BME280;51056;50.330;7.914;2022-11-04T10:08:35;99724.88;;;10.94;90.50
64644;BME280;51056;50.330;7.914;2022-11-04T10:11:56;99722.56;;;11.03;89.56
64644;BME280;51056;50.330;7.914;2022-11-04T10:22:03;99732.19;;;11.15;88.97
64644;BME280;51056;50.330;7.914;2022-11-04T10:25:15;99730.34;;;11.17;89.59
64644;BME280;51056;50.330;7.914;2022-11-04T10:28:42;99734.41;;;11.21;90.00
64644;BME280;51056;50.330;7.914;2022-11-04T10:31:46;99728.03;;;11.25;89.44
64644;BME280;51056;50.330;7.914;2022-11-04T10:35:01;99730.13;;;11.20;88.88
64644;BME280;51056;50.330;7.914;2022-11-04T10:38:31;99734.47;;;11.07;88.04
64644;BME280;51056;50.330;7.914;2022-11-04T10:41:38;99738.38;;;11.14;87.79
64644;BME280;51056;50.330;7.914;2022-11-04T10:44:44;99729.47;;;11.29;87.32
64644;BME280;51056;50.330;7.914;2022-11-04T10:48:02;99724.03;;;11.45;87.37
64644;BME280;51056;50.330;7.914;2022-11-04T10:51:08;99733.78;;;11.30;87.03
64644;BME280;51056;50.330;7.914;2022-11-04T10:54:11;99726.16;;;11.27;87.05
64644;BME280;51056;50.330;7.914;2022-11-04T10:57:21;99726.44;;;11.35;86.71
64644;BME280;51056;50.330;7.914;2022-11-04T11:00:39;99736.81;;;11.37;86.19
64644;BME280;51056;50.330;7.914;2022-11-04T11:03:43;99729.28;;;11.32;88.78
64644;BME280;51056;50.330;7.914;2022-11-04T11:06:48;99730.00;;;11.34;88.94
64644;BME280;51056;50.330;7.914;2022-11-04T11:09:53;99723.81;;;11.35;89.16
64644;BME280;51056;50.330;7.914;2022-11-04T11:13:04;99730.56;;;11.39;88.63
64644;BME280;51056;50.330;7.914;2022-11-04T11:16:23;99726.03;;;11.29;87.17
64644;BME280;51056;50.330;7.914;2022-11-04T11:19:57;99723.19;;;11.19;86.72
64644;BME280;51056;50.330;7.914;2022-11-04T11:23:02;99723.19;;;11.45;87.33
64644;BME280;51056;50.330;7.914;2022-11-04T11:26:16;99722.47;;;11.68;86.78
64644;BME280;51056;50.330;7.914;2022-11-04T11:29:41;99723.19;;;11.70;86.99
64644;BME280;51056;50.330;7.914;2022-11-04T11:32:46;99715.88;;;11.62;87.20
64644;BME280;51056;50.330;7.914;2022-11-04T11:36:01;99715.69;;;11.53;87.35
64644;BME280;51056;50.330;7.914;2022-11-04T11:39:20;99717.13;;;11.44;87.39
64644;BME280;51056;50.330;7.914;2022-11-04T11:42:25;99721.00;;;11.51;87.04
64644;BME280;51056;50.330;7.914;2022-11-04T11:45:30;99718.38;;;11.64;85.87
64644;BME280;51056;50.330;7.914;2022-11-04T11:48:44;99727.59;;;11.70;86.29
64644;BME280;51056;50.330;7.914;2022-11-04T11:51:55;99723.59;;;11.64;88.75
64644;BME280;51056;50.330;7.914;2022-11-04T11:55:24;99714.72;;;11.54;89.70
64644;BME280;51056;50.330;7.914;2022-11-04T11:58:40;99724.34;;;11.53;91.83
64644;BME280;51056;50.330;7.914;2022-11-04T12:01:58;99724.22;;;11.68;90.79
64644;BME280;51056;50.330;7.914;2022-11-04T12:05:08;99729.38;;;11.69;89.02
64644;BME280;51056;50.330;7.914;2022-11-04T12:22:11;99734.28;;;11.23;84.75
64644;BME280;51056;50.330;7.914;2022-11-04T12:35:11;99747.59;;;11.58;84.10
64644;BME280;51056;50.330;7.914;2022-11-04T12:49:06;99751.06;;;11.20;85.68
64644;BME280;51056;50.330;7.914;2022-11-04T12:56:10;99751.56;;;11.25;85.07
64644;BME280;51056;50.330;7.914;2022-11-04T13:02:44;99754.31;;;11.36;84.96
64644;BME280;51056;50.330;7.914;2022-11-04T13:06:01;99757.03;;;11.48;85.19
64644;BME280;51056;50.330;7.914;2022-11-04T13:09:15;99747.38;;;11.61;84.16
64644;BME280;51056;50.330;7.914;2022-11-04T13:12:23;99753.03;;;11.80;82.69
64644;BME280;51056;50.330;7.914;2022-11-04T13:15:42;99756.50;;;11.81;82.97
64644;BME280;51056;50.330;7.914;2022-11-04T13:18:50;99760.16;;;11.78;83.94
64644;BME280;51056;50.330;7.914;2022-11-04T13:22:26;99752.94;;;11.69;83.21
64644;BME280;51056;50.330;7.914;2022-11-04T13:25:44;99744.31;;;11.80;81.71
64644;BME280;51056;50.330;7.914;2022-11-04T13:29:18;99751.56;;;11.76;82.94
64644;BME280;51056;50.330;7.914;2022-11-04T13:32:56;99758.19;;;11.44;83.67
64644;BME280;51056;50.330;7.914;2022-11-04T13:39:25;99779.41;;;11.26;84.41
64644;BME280;51056;50.330;7.914;2022-11-04T13:45:53;99785.38;;;11.28;82.11
64644;BME280;51056;50.330;7.914;2022-11-04T13:49:31;99785.59;;;11.38;82.42
64644;BME280;51056;50.330;7.914;2022-11-04T13:53:16;99785.81;;;11.35;80.43
64644;BME280;51056;50.330;7.914;2022-11-04T13:56:36;99791.47;;;11.41;80.40
64644;BME280;51056;50.330;7.914;2022-11-04T14:04:29;99805.50;;;11.40;82.46
64644;BME280;51056;50.330;7.914;2022-11-04T14:08:15;99806.97;;;11.45;81.83
64644;BME280;51056;50.330;7.914;2022-11-04T14:23:21;99817.44;;;11.57;87.38
64644;BME280;51056;50.330;7.914;2022-11-04T14:26:42;99819.16;;;11.71;85.57
64644;BME280;51056;50.330;7.914;2022-11-04T14:29:52;99834.41;;;11.64;88.24
64644;BME280;51056;50.330;7.914;2022-11-04T14:37:31;99842.31;;;11.77;89.43
64644;BME280;51056;50.330;7.914;2022-11-04T14:40:51;99835.69;;;11.72;90.24
64644;BME280;51056;50.330;7.914;2022-11-04T14:44:00;99844.06;;;11.77;88.90
64644;BME280;51056;50.330;7.914;2022-11-04T14:50:26;99859.78;;;11.64;88.63
64644;BME280;51056;50.330;7.914;2022-11-04T14:53:35;99864.91;;;11.66;89.60
64644;BME280;51056;50.330;7.914;2022-11-04T14:56:40;99859.78;;;11.64;88.65
64644;BME280;51056;50.330;7.914;2022-11-04T14:59:47;99869.78;;;11.45;89.48
64644;BME280;51056;50.330;7.914;2022-11-04T15:03:36;99877.50;;;11.21;90.75
64644;BME280;51056;50.330;7.914;2022-11-04T15:06:41;99881.69;;;11.23;91.40
64644;BME280;51056;50.330;7.914;2022-11-04T15:09:49;99886.19;;;11.21;91.97
64644;BME280;51056;50.330;7.914;2022-11-04T15:13:01;99886.97;;;11.09;92.32
64644;BME280;51056;50.330;7.914;2022-11-04T15:16:26;99891.81;;;11.15;92.57
64644;BME280;51056;50.330;7.914;2022-11-04T15:20:23;99900.34;;;11.31;92.43
64644;BME280;51056;50.330;7.914;2022-11-04T15:23:55;99896.00;;;11.17;93.59
64644;BME280;51056;50.330;7.914;2022-11-04T15:27:09;99901.97;;;11.20;93.88
